Time;durP1;ratioP1;P1;durP2;ratioP2;P2;SDS_P1;SDS_P2;PMS_P1;PMS_P2;Temp;Humidity;BMP_temperature;BMP_pressure;BME280_temperature;BME280_humidity;BME280_pressure;Samples;Min_cycle;Max_cycle;Signal;HPM_P1;HPM_P2
2022/09/01 00:00:12;;;;;;;3.58;2.40;;;;;;;;;;5012814;28;20017;-73
2022/09/01 00:02:37;;;;;;;4.65;2.50;;;;;;;;;;5008557;28;20355;-73
2022/09/01 00:05:03;;;;;;;2.30;2.10;;;;;;;;;;5011939;28;20111;-73
2022/09/01 00:07:30;;;;;;;3.42;2.10;;;;;;;;;;5018448;28;20025;-73
2022/09/01 00:09:55;;;;;;;3.97;2.25;;;;;;;;;;5011945;28;20029;-75
2022/09/01 00:12:21;;;;;;;4.90;2.20;;;;;;;;;;5017447;28;21932;-74
2022/09/01 00:14:47;;;;;;;4.80;2.35;;;;;;;;;;5011733;28;20028;-73
2022/09/01 00:17:12;;;;;;;5.22;1.98;;;;;;;;;;5015620;28;20025;-73
2022/09/01 00:19:38;;;;;;;2.83;1.92;;;;;;;;;;5011923;28;20828;-71
2022/09/01 00:22:04;;;;;;;3.13;2.00;;;;;;;;;;5014018;28;20048;-75
2022/09/01 00:24:29;;;;;;;2.23;2.00;;;;;;;;;;5013100;28;20159;-74
2022/09/01 00:26:55;;;;;;;6.93;2.15;;;;;;;;;;5009608;28;20299;-73
2022/09/01 00:29:20;;;;;;;4.20;1.98;;;;;;;;;;5015268;28;20068;-73
2022/09/01 00:31:46;;;;;;;3.63;2.10;;;;;;;;;;5012575;28;20079;-72
2022/09/01 00:34:11;;;;;;;4.45;2.28;;;;;;;;;;5012840;28;20030;-73
2022/09/01 00:36:36;;;;;;;4.95;2.33;;;;;;;;;;5019363;28;20516;-75
2022/09/01 00:39:02;;;;;;;3.17;1.85;;;;;;;;;;5016377;28;20029;-73
2022/09/01 00:41:29;;;;;;;3.28;2.42;;;;;;;;;;5012144;28;20021;-70
2022/09/01 00:43:58;;;;;;;4.03;2.10;;;;;;;;;;5011003;28;20109;-71
2022/09/01 00:46:34;;;;;;;4.47;2.15;;;;;;;;;;5017286;28;20033;-73
2022/09/01 00:49:19;;;;;;;2.45;1.90;;;;;;;;;;5017171;28;20261;-73
2022/09/01 00:51:50;;;;;;;5.93;2.10;;;;;;;;;;5012691;28;20136;-73
2022/09/01 00:54:18;;;;;;;7.38;2.40;;;;;;;;;;5011267;28;20572;-74
2022/09/01 00:56:44;;;;;;;3.80;2.50;;;;;;;;;;5016908;28;20117;-74
2022/09/01 00:59:11;;;;;;;4.60;2.10;;;;;;;;;;5016964;28;20557;-75
2022/09/01 01:01:36;;;;;;;3.97;2.33;;;;;;;;;;5018898;28;20022;-73
2022/09/01 01:04:03;;;;;;;3.55;2.33;;;;;;;;;;5013178;28;20393;-75
2022/09/01 01:06:31;;;;;;;3.20;1.88;;;;;;;;;;5018543;28;20086;-73
2022/09/01 01:08:57;;;;;;;6.55;2.55;;;;;;;;;;5018605;28;20068;-73
2022/09/01 01:11:23;;;;;;;4.75;2.00;;;;;;;;;;5017236;28;20108;-72
2022/09/01 01:13:51;;;;;;;5.18;2.10;;;;;;;;;;5011496;28;20087;-74
2022/09/01 01:16:17;;;;;;;5.20;2.30;;;;;;;;;;5009003;28;20523;-73
2022/09/01 01:18:42;;;;;;;2.60;1.85;;;;;;;;;;5018723;28;20037;-73
2022/09/01 01:24:00;;;;;;;3.17;2.13;;;;;;;;;;5011748;28;20712;-74
2022/09/01 01:26:26;;;;;;;3.50;2.53;;;;;;;;;;5014929;28;20477;-73
2022/09/01 01:28:52;;;;;;;3.78;1.80;;;;;;;;;;5011442;28;20850;-73
2022/09/01 01:31:20;;;;;;;3.70;2.17;;;;;;;;;;5016767;28;20163;-73
2022/09/01 01:33:48;;;;;;;3.58;1.70;;;;;;;;;;5016002;28;20381;-73
2022/09/01 01:36:18;;;;;;;4.38;1.98;;;;;;;;;;5010008;28;20022;-74
2022/09/01 01:38:45;;;;;;;3.13;1.80;;;;;;;;;;5020713;28;20288;-74
2022/09/01 01:41:12;;;;;;;3.08;2.10;;;;;;;;;;5012211;28;20022;-73
2022/09/01 01:43:38;;;;;;;3.15;1.92;;;;;;;;;;5018176;28;20037;-71
2022/09/01 01:46:04;;;;;;;2.53;1.98;;;;;;;;;;5008830;28;20037;-74
2022/09/01 01:48:33;;;;;;;2.97;2.10;;;;;;;;;;5011583;28;20612;-73
2022/09/01 01:50:59;;;;;;;4.57;2.35;;;;;;;;;;5013012;28;20025;-74
2022/09/01 01:53:25;;;;;;;2.10;1.70;;;;;;;;;;5016126;28;20031;-73
2022/09/01 01:55:50;;;;;;;6.20;2.03;;;;;;;;;;5021203;28;20038;-73
2022/09/01 01:58:18;;;;;;;3.70;2.17;;;;;;;;;;5018005;28;20083;-75
2022/09/01 02:00:45;;;;;;;3.00;2.20;;;;;;;;;;5014696;28;20028;-74
2022/09/01 02:03:11;;;;;;;3.45;2.03;;;;;;;;;;5011789;28;20033;-73
2022/09/01 02:05:38;;;;;;;2.53;1.90;;;;;;;;;;5016533;28;20021;-71
2022/09/01 02:08:04;;;;;;;5.65;1.98;;;;;;;;;;5017967;28;20048;-70
2022/09/01 02:10:31;;;;;;;3.88;1.90;;;;;;;;;;5017907;28;20029;-71
2022/09/01 02:13:02;;;;;;;3.58;1.75;;;;;;;;;;5017134;28;20068;-73
2022/09/01 02:15:27;;;;;;;6.57;2.50;;;;;;;;;;5015577;28;20067;-73
2022/09/01 02:17:59;;;;;;;2.40;2.03;;;;;;;;;;5015068;28;20033;-73
2022/09/01 02:20:27;;;;;;;5.97;2.40;;;;;;;;;;5014979;28;20018;-73
2022/09/01 02:22:54;;;;;;;4.10;2.50;;;;;;;;;;5016910;28;20049;-70
2022/09/01 02:25:21;;;;;;;3.08;2.30;;;;;;;;;;5015797;28;20481;-72
2022/09/01 02:27:54;;;;;;;2.75;1.70;;;;;;;;;;5015779;28;20048;-73
2022/09/01 02:30:23;;;;;;;2.58;2.10;;;;;;;;;;5017001;28;20017;-71
2022/09/01 02:32:48;;;;;;;4.20;2.10;;;;;;;;;;5020332;28;20033;-71
2022/09/01 02:35:15;;;;;;;4.80;2.30;;;;;;;;;;5011360;28;20398;-72
2022/09/01 02:37:42;;;;;;;3.05;2.30;;;;;;;;;;5011264;28;20045;-71
2022/09/01 02:40:09;;;;;;;2.40;2.05;;;;;;;;;;5015827;28;20087;-73
2022/09/01 02:42:34;;;;;;;3.42;2.08;;;;;;;;;;5014366;28;20112;-71
2022/09/01 02:44:59;;;;;;;3.75;2.10;;;;;;;;;;5018133;28;20252;-74
2022/09/01 02:47:27;;;;;;;3.15;2.38;;;;;;;;;;5018543;28;20482;-74
2022/09/01 02:49:53;;;;;;;4.28;2.00;;;;;;;;;;5016437;28;20510;-72
2022/09/01 02:52:19;;;;;;;2.97;2.13;;;;;;;;;;5018709;28;20417;-72
2022/09/01 02:54:45;;;;;;;2.70;2.20;;;;;;;;;;5018263;28;20021;-74
2022/09/01 02:57:11;;;;;;;5.20;2.50;;;;;;;;;;5014576;28;20032;-73
2022/09/01 02:59:36;;;;;;;4.33;2.43;;;;;;;;;;5013722;28;20026;-75
2022/09/01 03:02:01;;;;;;;2.70;2.20;;;;;;;;;;5015617;28;20270;-74
2022/09/01 03:04:33;;;;;;;5.50;2.08;;;;;;;;;;5019935;28;20134;-74
2022/09/01 03:06:59;;;;;;;4.28;2.47;;;;;;;;;;5017527;28;20317;-74
2022/09/01 03:09:24;;;;;;;3.45;1.80;;;;;;;;;;5016439;28;20045;-74
2022/09/01 03:11:50;;;;;;;2.70;2.13;;;;;;;;;;5016780;28;20147;-71
2022/09/01 03:14:16;;;;;;;4.22;2.47;;;;;;;;;;5013768;28;20336;-73
2022/09/01 03:16:41;;;;;;;6.25;2.30;;;;;;;;;;5017749;28;20026;-73
2022/09/01 03:19:07;;;;;;;4.82;2.25;;;;;;;;;;5016304;28;20536;-73
2022/09/01 03:21:33;;;;;;;2.67;2.40;;;;;;;;;;5013659;28;20029;-74
2022/09/01 03:24:00;;;;;;;3.10;2.58;;;;;;;;;;5019637;28;20045;-73
2022/09/01 03:26:26;;;;;;;6.30;3.03;;;;;;;;;;5015604;28;20120;-74
2022/09/01 03:28:52;;;;;;;2.80;2.53;;;;;;;;;;5011115;28;20325;-73
2022/09/01 03:31:18;;;;;;;4.50;2.30;;;;;;;;;;5021741;28;20501;-75
2022/09/01 03:33:43;;;;;;;4.25;2.42;;;;;;;;;;5014682;28;20057;-73
2022/09/01 03:36:17;;;;;;;5.20;2.15;;;;;;;;;;5018115;28;20113;-70
2022/09/01 03:38:47;;;;;;;3.90;2.10;;;;;;;;;;5015114;28;20047;-73
2022/09/01 03:41:12;;;;;;;3.17;2.25;;;;;;;;;;5011435;28;20501;-74
2022/09/01 03:43:37;;;;;;;5.40;2.33;;;;;;;;;;5017367;28;20087;-71
2022/09/01 03:46:02;;;;;;;3.80;2.23;;;;;;;;;;5016591;28;20080;-73
2022/09/01 03:48:28;;;;;;;2.75;2.20;;;;;;;;;;5017735;28;20277;-73
2022/09/01 03:50:54;;;;;;;5.07;3.17;;;;;;;;;;5016497;28;20573;-71
2022/09/01 03:53:21;;;;;;;3.83;2.20;;;;;;;;;;5016600;28;20158;-74
2022/09/01 03:55:47;;;;;;;5.22;2.80;;;;;;;;;;5015001;28;20014;-73
2022/09/01 03:58:17;;;;;;;3.28;2.65;;;;;;;;;;5017204;28;20025;-73
2022/09/01 04:00:43;;;;;;;2.63;2.42;;;;;;;;;;5016529;28;21210;-72
2022/09/01 04:03:11;;;;;;;3.75;2.60;;;;;;;;;;5016622;28;20045;-73
2022/09/01 04:05:37;;;;;;;5.35;2.50;;;;;;;;;;5022051;28;20045;-76
2022/09/01 04:08:04;;;;;;;2.83;2.30;;;;;;;;;;5019064;28;20113;-74
2022/09/01 04:10:31;;;;;;;2.45;2.13;;;;;;;;;;5017618;28;21400;-76
2022/09/01 04:12:57;;;;;;;3.67;2.45;;;;;;;;;;5021283;28;20075;-74
2022/09/01 04:15:23;;;;;;;3.25;2.20;;;;;;;;;;5021233;28;20517;-75
2022/09/01 04:18:08;;;;;;;2.28;2.00;;;;;;;;;;5019395;28;20077;-76
2022/09/01 04:20:46;;;;;;;3.53;2.42;;;;;;;;;;5022206;28;20017;-74
2022/09/01 04:23:12;;;;;;;2.90;2.60;;;;;;;;;;5020578;28;20021;-76
2022/09/01 04:25:37;;;;;;;2.92;2.50;;;;;;;;;;5019394;28;20494;-76
2022/09/01 04:28:11;;;;;;;4.63;2.50;;;;;;;;;;5018660;28;20135;-75
2022/09/01 04:30:39;;;;;;;3.67;2.40;;;;;;;;;;5021449;28;20009;-72
2022/09/01 04:33:04;;;;;;;5.43;2.60;;;;;;;;;;5020021;28;20025;-74
2022/09/01 04:35:31;;;;;;;6.72;2.20;;;;;;;;;;5019597;28;20026;-74
2022/09/01 04:37:58;;;;;;;2.70;2.08;;;;;;;;;;5015772;28;20037;-74
2022/09/01 04:40:23;;;;;;;3.50;2.67;;;;;;;;;;5017376;28;20021;-74
2022/09/01 04:42:48;;;;;;;4.07;2.70;;;;;;;;;;5020066;28;20386;-72
2022/09/01 04:45:14;;;;;;;3.78;2.42;;;;;;;;;;5017534;28;20816;-76
2022/09/01 04:47:41;;;;;;;3.00;2.33;;;;;;;;;;5010324;28;20115;-75
2022/09/01 04:50:12;;;;;;;3.53;2.72;;;;;;;;;;5010207;28;20025;-71
2022/09/01 04:52:37;;;;;;;3.90;2.60;;;;;;;;;;5015159;28;20026;-74
2022/09/01 04:55:03;;;;;;;3.25;2.60;;;;;;;;;;5013603;28;20095;-73
2022/09/01 04:57:30;;;;;;;3.33;2.63;;;;;;;;;;5012481;28;20057;-75
2022/09/01 04:59:55;;;;;;;3.38;2.97;;;;;;;;;;5017890;28;20032;-75
2022/09/01 05:02:25;;;;;;;3.80;3.42;;;;;;;;;;5010824;28;20036;-72
2022/09/01 05:04:53;;;;;;;3.28;2.47;;;;;;;;;;5017807;28;20071;-75
2022/09/01 05:07:20;;;;;;;5.03;2.90;;;;;;;;;;5027686;28;20126;-70
2022/09/01 05:09:45;;;;;;;2.85;2.30;;;;;;;;;;5013106;28;20030;-75
2022/09/01 05:12:10;;;;;;;4.20;2.13;;;;;;;;;;5010317;28;20143;-74
2022/09/01 05:14:37;;;;;;;4.22;2.47;;;;;;;;;;5013624;28;20025;-73
2022/09/01 05:17:04;;;;;;;3.05;2.50;;;;;;;;;;5016415;28;20030;-74
2022/09/01 05:19:29;;;;;;;3.90;2.67;;;;;;;;;;5015476;28;20669;-75
2022/09/01 05:21:57;;;;;;;2.78;2.50;;;;;;;;;;5013621;28;20033;-74
2022/09/01 05:24:25;;;;;;;2.90;2.60;;;;;;;;;;5011312;28;20018;-73
2022/09/01 05:26:51;;;;;;;7.72;3.03;;;;;;;;;;5012092;28;20045;-73
2022/09/01 05:29:16;;;;;;;3.17;2.63;;;;;;;;;;5014564;28;20497;-73
2022/09/01 05:31:43;;;;;;;3.60;2.80;;;;;;;;;;5013105;28;20068;-72
2022/09/01 05:34:08;;;;;;;6.07;3.25;;;;;;;;;;5008748;28;20030;-73
2022/09/01 05:36:35;;;;;;;5.28;2.90;;;;;;;;;;5019656;28;20075;-70
2022/09/01 05:39:00;;;;;;;5.10;3.25;;;;;;;;;;5015006;28;20234;-73
2022/09/01 05:41:27;;;;;;;4.93;2.88;;;;;;;;;;5011375;28;20109;-73
2022/09/01 05:43:53;;;;;;;4.20;2.45;;;;;;;;;;5010192;28;20465;-73
2022/09/01 05:46:22;;;;;;;3.55;2.72;;;;;;;;;;5009092;28;20037;-73
2022/09/01 05:48:48;;;;;;;3.03;2.67;;;;;;;;;;5010094;28;20033;-75
2022/09/01 05:51:16;;;;;;;3.60;2.70;;;;;;;;;;5017576;28;20377;-75
2022/09/01 05:53:42;;;;;;;5.03;2.38;;;;;;;;;;5011701;28;20037;-73
2022/09/01 05:56:08;;;;;;;3.58;2.83;;;;;;;;;;5004709;28;20510;-71
2022/09/01 05:58:34;;;;;;;3.03;2.83;;;;;;;;;;5007031;28;20050;-73
2022/09/01 06:01:00;;;;;;;6.07;2.65;;;;;;;;;;5006246;28;20145;-73
2022/09/01 06:03:26;;;;;;;3.45;3.15;;;;;;;;;;5011249;28;20025;-73
2022/09/01 06:05:52;;;;;;;3.80;3.30;;;;;;;;;;5012463;28;20036;-73
2022/09/01 06:08:20;;;;;;;3.30;2.45;;;;;;;;;;5006707;28;20038;-72
2022/09/01 06:10:47;;;;;;;7.25;2.10;;;;;;;;;;5007850;28;20496;-72
2022/09/01 06:13:14;;;;;;;4.43;2.80;;;;;;;;;;5008507;28;20411;-72
2022/09/01 06:15:40;;;;;;;5.07;2.83;;;;;;;;;;5001683;28;20116;-73
2022/09/01 06:18:07;;;;;;;4.40;2.88;;;;;;;;;;5000546;28;20082;-73
2022/09/01 06:20:32;;;;;;;3.20;2.10;;;;;;;;;;5018817;28;20332;-74
2022/09/01 06:22:58;;;;;;;5.70;2.40;;;;;;;;;;5012756;28;20466;-70
2022/09/01 06:25:25;;;;;;;4.57;2.40;;;;;;;;;;5015933;28;20385;-74
2022/09/01 06:27:51;;;;;;;3.85;2.10;;;;;;;;;;5018171;28;20037;-72
2022/09/01 06:30:19;;;;;;;5.15;2.63;;;;;;;;;;5020270;28;20013;-74
2022/09/01 06:32:45;;;;;;;7.50;2.42;;;;;;;;;;5019249;28;20029;-73
2022/09/01 06:35:11;;;;;;;2.53;2.10;;;;;;;;;;5016678;28;20025;-71
2022/09/01 06:37:37;;;;;;;4.75;2.50;;;;;;;;;;5018483;28;20091;-71
2022/09/01 06:40:03;;;;;;;9.30;2.38;;;;;;;;;;5013868;28;20033;-73
2022/09/01 06:42:30;;;;;;;3.38;2.42;;;;;;;;;;5021282;28;20397;-70
2022/09/01 06:44:55;;;;;;;3.03;2.20;;;;;;;;;;5017786;28;20021;-69
2022/09/01 06:47:20;;;;;;;4.35;2.10;;;;;;;;;;5020800;28;20033;-74
2022/09/01 06:49:45;;;;;;;3.40;1.77;;;;;;;;;;5018976;28;20030;-70
2022/09/01 06:52:12;;;;;;;2.70;2.47;;;;;;;;;;5015419;28;20025;-74
2022/09/01 06:54:40;;;;;;;5.15;2.53;;;;;;;;;;5014328;28;20774;-74
2022/09/01 06:57:05;;;;;;;5.95;2.70;;;;;;;;;;5023590;28;20100;-71
2022/09/01 06:59:31;;;;;;;5.72;2.22;;;;;;;;;;5023634;28;20080;-74
2022/09/01 07:01:58;;;;;;;3.00;2.78;;;;;;;;;;5017498;28;20025;-74
2022/09/01 07:04:25;;;;;;;3.00;2.22;;;;;;;;;;5015874;28;20061;-73
2022/09/01 07:06:51;;;;;;;2.70;2.28;;;;;;;;;;5021757;28;20480;-74
2022/09/01 07:09:16;;;;;;;5.00;2.38;;;;;;;;;;5014418;28;20084;-75
2022/09/01 07:11:41;;;;;;;5.20;2.75;;;;;;;;;;5017457;28;20045;-72
2022/09/01 07:14:06;;;;;;;7.90;2.53;;;;;;;;;;5016074;28;20088;-75
2022/09/01 07:16:38;;;;;;;3.47;2.40;;;;;;;;;;5015222;28;21121;-72
2022/09/01 07:19:05;;;;;;;3.80;2.30;;;;;;;;;;5015614;28;20091;-73
2022/09/01 07:21:33;;;;;;;4.30;2.47;;;;;;;;;;5017123;28;20035;-73
2022/09/01 07:24:02;;;;;;;3.03;2.38;;;;;;;;;;5016282;28;20060;-74
2022/09/01 07:26:27;;;;;;;2.33;2.00;;;;;;;;;;5018192;28;20021;-74
2022/09/01 07:28:53;;;;;;;3.95;2.65;;;;;;;;;;5020567;28;20049;-74
2022/09/01 07:31:23;;;;;;;3.53;2.10;;;;;;;;;;5025942;28;20104;-72
2022/09/01 07:33:49;;;;;;;3.70;2.13;;;;;;;;;;5020265;28;20025;-72
2022/09/01 07:36:15;;;;;;;5.50;2.47;;;;;;;;;;5018614;28;20474;-70
2022/09/01 07:38:41;;;;;;;6.40;2.10;;;;;;;;;;5019003;28;20068;-71
2022/09/01 07:41:07;;;;;;;5.60;2.05;;;;;;;;;;5029854;28;20112;-70
2022/09/01 07:43:32;;;;;;;4.40;2.45;;;;;;;;;;5023409;28;20120;-71
2022/09/01 07:45:58;;;;;;;5.70;3.30;;;;;;;;;;5017108;28;20647;-74
2022/09/01 07:48:25;;;;;;;3.28;2.83;;;;;;;;;;5018512;28;20061;-74
2022/09/01 07:50:51;;;;;;;6.65;3.25;;;;;;;;;;5017338;28;20030;-72
2022/09/01 07:53:22;;;;;;;9.13;3.30;;;;;;;;;;5021279;28;20030;-74
2022/09/01 07:55:51;;;;;;;4.72;2.67;;;;;;;;;;5019355;28;20022;-73
2022/09/01 07:58:18;;;;;;;3.58;1.42;;;;;;;;;;5018013;28;20434;-74
2022/09/01 08:00:44;;;;;;;3.33;1.63;;;;;;;;;;5012183;28;20024;-71
2022/09/01 08:03:09;;;;;;;4.22;1.50;;;;;;;;;;5015207;28;20017;-75
2022/09/01 08:05:34;;;;;;;2.20;1.73;;;;;;;;;;5016153;28;20032;-70
2022/09/01 08:08:00;;;;;;;4.03;1.80;;;;;;;;;;5016760;28;20251;-74
2022/09/01 08:10:25;;;;;;;2.80;1.60;;;;;;;;;;5021305;28;20085;-70
2022/09/01 08:12:51;;;;;;;2.58;1.70;;;;;;;;;;5019112;28;20034;-75
2022/09/01 08:15:16;;;;;;;2.08;1.45;;;;;;;;;;5017485;28;20072;-71
2022/09/01 08:17:42;;;;;;;2.47;1.30;;;;;;;;;;5018365;28;20092;-74
2022/09/01 08:20:08;;;;;;;3.28;1.70;;;;;;;;;;5020280;28;20104;-74
2022/09/01 08:22:34;;;;;;;2.13;1.83;;;;;;;;;;5020958;28;20033;-75
2022/09/01 08:24:59;;;;;;;4.85;1.80;;;;;;;;;;5022114;28;20033;-75
2022/09/01 08:27:24;;;;;;;3.72;1.35;;;;;;;;;;5016431;28;20053;-75
2022/09/01 08:29:50;;;;;;;5.15;2.20;;;;;;;;;;5019505;28;20389;-73
2022/09/01 08:32:15;;;;;;;2.90;2.00;;;;;;;;;;5021037;28;20033;-73
2022/09/01 08:34:42;;;;;;;2.72;1.42;;;;;;;;;;5009451;28;20409;-74
2022/09/01 08:37:07;;;;;;;4.45;1.92;;;;;;;;;;5016185;28;20382;-71
2022/09/01 08:39:32;;;;;;;1.90;1.50;;;;;;;;;;5020066;28;20032;-75
2022/09/01 08:42:01;;;;;;;3.00;1.40;;;;;;;;;;5022956;28;20034;-72
2022/09/01 08:44:40;;;;;;;5.50;1.70;;;;;;;;;;5018967;28;20044;-71
2022/09/01 08:47:07;;;;;;;3.80;1.48;;;;;;;;;;5019348;28;20432;-75
2022/09/01 08:49:33;;;;;;;3.60;1.40;;;;;;;;;;5021985;28;21433;-75
2022/09/01 08:52:02;;;;;;;2.03;1.30;;;;;;;;;;5013006;28;20033;-75
2022/09/01 08:54:48;;;;;;;4.30;2.38;;;;;;;;;;5021546;28;20071;-75
2022/09/01 08:57:18;;;;;;;5.82;2.58;;;;;;;;;;5018974;28;20025;-75
2022/09/01 08:59:44;;;;;;;3.85;1.73;;;;;;;;;;5013906;28;20028;-74
2022/09/01 09:02:24;;;;;;;2.47;1.33;;;;;;;;;;5014962;28;20029;-74
2022/09/01 09:05:02;;;;;;;2.95;1.45;;;;;;;;;;5023573;28;20025;-74
2022/09/01 09:07:30;;;;;;;1.60;1.50;;;;;;;;;;5016173;28;20040;-73
2022/09/01 09:09:58;;;;;;;3.65;1.95;;;;;;;;;;5019399;28;20036;-74
2022/09/01 09:12:30;;;;;;;3.38;1.40;;;;;;;;;;5016139;28;20056;-73
2022/09/01 09:15:24;;;;;;;3.08;1.80;;;;;;;;;;5019186;28;20040;-74
2022/09/01 09:17:58;;;;;;;4.93;2.60;;;;;;;;;;5003382;28;20039;-72
2022/09/01 09:20:23;;;;;;;1.98;1.48;;;;;;;;;;5016336;28;20076;-73
2022/09/01 09:22:48;;;;;;;5.13;1.47;;;;;;;;;;5016803;28;20512;-73
2022/09/01 09:25:16;;;;;;;4.32;1.30;;;;;;;;;;5020550;28;20340;-72
2022/09/01 09:27:42;;;;;;;1.88;1.55;;;;;;;;;;5015390;28;20046;-73
2022/09/01 09:30:09;;;;;;;2.13;1.50;;;;;;;;;;5010138;28;20032;-73
2022/09/01 09:33:02;;;;;;;4.15;1.50;;;;;;;;;;5016063;28;20034;-70
2022/09/01 09:35:31;;;;;;;2.03;1.55;;;;;;;;;;5007723;28;20022;-72
2022/09/01 09:38:22;;;;;;;5.47;1.50;;;;;;;;;;5017418;28;20424;-72
2022/09/01 09:41:16;;;;;;;3.65;2.40;;;;;;;;;;5008823;28;20457;-72
2022/09/01 09:44:02;;;;;;;3.05;1.70;;;;;;;;;;5013324;28;20037;-74
2022/09/01 09:46:30;;;;;;;4.43;1.38;;;;;;;;;;5016894;28;23087;-72
2022/09/01 09:49:09;;;;;;;4.47;1.30;;;;;;;;;;5019268;28;20033;-70
2022/09/01 09:51:35;;;;;;;6.63;2.38;;;;;;;;;;5020392;28;20022;-72
2022/09/01 09:54:14;;;;;;;3.70;1.40;;;;;;;;;;5011678;28;20127;-71
2022/09/01 09:56:43;;;;;;;4.80;1.60;;;;;;;;;;5007402;28;20033;-72
2022/09/01 09:59:28;;;;;;;4.38;2.03;;;;;;;;;;5016076;28;20111;-73
2022/09/01 10:01:57;;;;;;;3.45;1.60;;;;;;;;;;5011783;28;20525;-73
2022/09/01 10:04:32;;;;;;;4.65;2.20;;;;;;;;;;5013247;28;20048;-73
2022/09/01 10:06:58;;;;;;;3.22;1.75;;;;;;;;;;5024713;28;20057;-73
2022/09/01 10:09:33;;;;;;;2.65;1.50;;;;;;;;;;5012238;28;20103;-74
2022/09/01 10:11:59;;;;;;;4.10;1.50;;;;;;;;;;5004907;28;20061;-73
2022/09/01 10:14:30;;;;;;;6.22;1.88;;;;;;;;;;5008497;28;20112;-73
2022/09/01 10:16:59;;;;;;;2.42;1.40;;;;;;;;;;5016045;28;20049;-73
2022/09/01 10:19:26;;;;;;;4.05;1.42;;;;;;;;;;5014034;28;20037;-72
2022/09/01 10:21:51;;;;;;;4.80;2.60;;;;;;;;;;5017601;28;20477;-71
2022/09/01 10:24:26;;;;;;;2.83;1.63;;;;;;;;;;5012739;28;20061;-73
2022/09/01 10:26:53;;;;;;;1.55;1.13;;;;;;;;;;5007255;28;20025;-70
2022/09/01 10:29:20;;;;;;;2.17;1.25;;;;;;;;;;5018832;28;20180;-70
2022/09/01 10:31:46;;;;;;;2.25;1.20;;;;;;;;;;5014928;28;20033;-73
2022/09/01 10:34:15;;;;;;;3.97;1.50;;;;;;;;;;5011597;28;20516;-73
2022/09/01 10:36:40;;;;;;;2.65;1.30;;;;;;;;;;5006534;28;20056;-71
2022/09/01 10:39:09;;;;;;;2.47;1.45;;;;;;;;;;5010939;28;20087;-73
2022/09/01 10:41:52;;;;;;;3.17;1.33;;;;;;;;;;5020155;28;20026;-70
2022/09/01 10:44:22;;;;;;;1.92;1.20;;;;;;;;;;5016600;28;20030;-74
2022/09/01 10:46:49;;;;;;;2.97;1.10;;;;;;;;;;5017285;28;20501;-72
2022/09/01 10:49:40;;;;;;;4.65;1.10;;;;;;;;;;5013668;28;20037;-74
2022/09/01 10:52:06;;;;;;;3.38;1.00;;;;;;;;;;4995451;28;20064;-70
2022/09/01 10:54:37;;;;;;;2.83;0.98;;;;;;;;;;5016734;28;20030;-70
2022/09/01 10:57:04;;;;;;;2.25;1.20;;;;;;;;;;5017491;28;20386;-75
2022/09/01 10:59:29;;;;;;;2.00;1.13;;;;;;;;;;5028946;28;20065;-73
2022/09/01 11:01:55;;;;;;;1.75;1.10;;;;;;;;;;5018019;28;20533;-75
2022/09/01 11:04:21;;;;;;;3.70;1.03;;;;;;;;;;5017019;28;20075;-75
2022/09/01 11:06:49;;;;;;;3.30;0.80;;;;;;;;;;5021924;28;20275;-70
2022/09/01 11:09:21;;;;;;;1.70;1.08;;;;;;;;;;5024916;28;20332;-73
2022/09/01 11:11:49;;;;;;;3.78;1.00;;;;;;;;;;5019973;28;20032;-75
2022/09/01 11:14:19;;;;;;;1.50;1.20;;;;;;;;;;5027055;28;20029;-72
2022/09/01 11:17:04;;;;;;;1.88;1.02;;;;;;;;;;5015534;28;20029;-71
2022/09/01 11:19:38;;;;;;;4.43;1.48;;;;;;;;;;5020554;28;20030;-71
2022/09/01 11:22:08;;;;;;;1.45;1.20;;;;;;;;;;5017522;28;20466;-72
2022/09/01 11:24:43;;;;;;;3.75;1.13;;;;;;;;;;5023390;28;20034;-72
2022/09/01 11:27:10;;;;;;;3.35;1.30;;;;;;;;;;5022695;28;20026;-72
2022/09/01 11:29:54;;;;;;;1.70;0.75;;;;;;;;;;5021547;28;20033;-72
2022/09/01 11:32:20;;;;;;;1.70;1.00;;;;;;;;;;5020970;28;20021;-75
2022/09/01 11:34:47;;;;;;;1.85;1.00;;;;;;;;;;5016748;28;20521;-75
2022/09/01 11:37:14;;;;;;;1.27;1.13;;;;;;;;;;5019079;28;20032;-72
2022/09/01 11:39:41;;;;;;;1.25;1.10;;;;;;;;;;5026900;28;20080;-70
2022/09/01 11:42:27;;;;;;;5.72;1.10;;;;;;;;;;5019027;28;20057;-72
2022/09/01 11:44:58;;;;;;;2.35;1.08;;;;;;;;;;5024634;28;20026;-72
2022/09/01 11:47:25;;;;;;;2.65;1.25;;;;;;;;;;5018028;28;20029;-71
2022/09/01 11:49:57;;;;;;;1.00;0.80;;;;;;;;;;5027817;28;20416;-75
2022/09/01 11:52:23;;;;;;;2.00;0.82;;;;;;;;;;5018693;28;20478;-72
2022/09/01 11:54:49;;;;;;;1.10;1.00;;;;;;;;;;5013972;28;20394;-75
2022/09/01 11:57:18;;;;;;;3.80;1.30;;;;;;;;;;5022176;28;20014;-74
2022/09/01 11:59:44;;;;;;;2.95;1.10;;;;;;;;;;5021981;28;20084;-74
2022/09/01 12:02:15;;;;;;;3.75;2.22;;;;;;;;;;5024761;28;20579;-75
2022/09/01 12:04:41;;;;;;;1.70;1.10;;;;;;;;;;5025518;28;20021;-73
2022/09/01 12:07:09;;;;;;;9.38;1.25;;;;;;;;;;5017387;28;20302;-71
2022/09/01 12:09:37;;;;;;;3.05;1.10;;;;;;;;;;5015999;28;20523;-75
2022/09/01 12:12:03;;;;;;;1.67;1.05;;;;;;;;;;5014895;28;20075;-75
2022/09/01 12:14:29;;;;;;;4.55;1.10;;;;;;;;;;5016732;28;20442;-72
2022/09/01 12:16:55;;;;;;;1.02;0.88;;;;;;;;;;5001110;28;20137;-72
2022/09/01 12:19:24;;;;;;;3.30;1.20;;;;;;;;;;5013530;28;20038;-73
2022/09/01 12:22:20;;;;;;;1.27;0.90;;;;;;;;;;5004727;28;20037;-74
2022/09/01 12:24:54;;;;;;;1.48;1.05;;;;;;;;;;5012008;28;20037;-75
2022/09/01 12:27:21;;;;;;;5.57;1.25;;;;;;;;;;5022211;28;20048;-77
2022/09/01 12:29:47;;;;;;;4.65;1.30;;;;;;;;;;5029192;28;20057;-76
2022/09/01 12:32:13;;;;;;;1.73;1.08;;;;;;;;;;5022509;28;20069;-75
2022/09/01 12:34:39;;;;;;;3.63;1.20;;;;;;;;;;5025615;28;20038;-76
2022/09/01 12:37:05;;;;;;;2.13;1.00;;;;;;;;;;5024158;28;20519;-74
2022/09/01 12:39:38;;;;;;;2.97;1.20;;;;;;;;;;5019908;28;20039;-76
2022/09/01 12:42:18;;;;;;;3.95;1.52;;;;;;;;;;5022287;28;20164;-75
2022/09/01 12:44:49;;;;;;;1.50;0.93;;;;;;;;;;5013539;28;20148;-72
2022/09/01 12:47:33;;;;;;;2.53;1.27;;;;;;;;;;5018069;28;20064;-74
2022/09/01 12:50:18;;;;;;;2.35;1.40;;;;;;;;;;5020602;28;20037;-75
2022/09/01 12:52:49;;;;;;;1.83;1.10;;;;;;;;;;5010834;28;20244;-75
2022/09/01 12:55:16;;;;;;;0.90;0.80;;;;;;;;;;5020601;28;20029;-75
2022/09/01 12:57:48;;;;;;;2.00;0.95;;;;;;;;;;5022016;28;20036;-75
2022/09/01 13:00:24;;;;;;;2.00;1.13;;;;;;;;;;5016563;28;20485;-74
2022/09/01 13:02:51;;;;;;;2.72;1.20;;;;;;;;;;5021170;28;20119;-74
2022/09/01 13:05:20;;;;;;;3.40;1.20;;;;;;;;;;5020784;28;20025;-76
2022/09/01 13:07:45;;;;;;;3.08;1.05;;;;;;;;;;5016725;28;20683;-73
2022/09/01 13:10:10;;;;;;;2.53;1.00;;;;;;;;;;5015827;28;20490;-74
2022/09/01 13:12:42;;;;;;;2.67;1.10;;;;;;;;;;5023013;28;20042;-74
2022/09/01 13:15:08;;;;;;;2.55;1.10;;;;;;;;;;5023801;28;20397;-74
2022/09/01 13:17:33;;;;;;;1.08;0.98;;;;;;;;;;5024560;28;20021;-74
2022/09/01 13:19:58;;;;;;;2.67;1.17;;;;;;;;;;5023145;28;20026;-72
2022/09/01 13:22:23;;;;;;;2.97;1.20;;;;;;;;;;5020573;28;20079;-74
2022/09/01 13:24:49;;;;;;;2.10;1.13;;;;;;;;;;5023770;28;20040;-74
2022/09/01 13:27:14;;;;;;;1.60;1.08;;;;;;;;;;5038899;28;20291;-74
2022/09/01 13:29:40;;;;;;;1.43;0.97;;;;;;;;;;5015332;28;20021;-74
2022/09/01 13:32:06;;;;;;;2.35;1.00;;;;;;;;;;5021202;28;20646;-75
2022/09/01 13:34:31;;;;;;;1.83;1.20;;;;;;;;;;5026912;28;20029;-75
2022/09/01 13:36:56;;;;;;;2.17;0.90;;;;;;;;;;5029607;28;20026;-75
2022/09/01 13:39:21;;;;;;;3.10;1.27;;;;;;;;;;5024416;28;20553;-75
2022/09/01 13:41:48;;;;;;;3.05;1.30;;;;;;;;;;5026270;28;20294;-75
2022/09/01 13:44:13;;;;;;;1.83;0.88;;;;;;;;;;5026379;28;20052;-72
2022/09/01 13:46:38;;;;;;;2.92;1.17;;;;;;;;;;5022328;28;20034;-75
2022/09/01 13:49:04;;;;;;;6.50;1.05;;;;;;;;;;5029173;28;20048;-75
2022/09/01 13:51:29;;;;;;;1.45;1.00;;;;;;;;;;5011942;28;20040;-71
2022/09/01 13:53:55;;;;;;;1.52;0.95;;;;;;;;;;5013971;28;20030;-75
2022/09/01 13:56:20;;;;;;;3.78;2.65;;;;;;;;;;5023899;28;20013;-75
2022/09/01 13:58:47;;;;;;;2.03;0.97;;;;;;;;;;5028052;28;20128;-73
2022/09/01 14:01:12;;;;;;;1.77;0.85;;;;;;;;;;5030370;28;20336;-72
2022/09/01 14:03:38;;;;;;;1.75;1.20;;;;;;;;;;5024806;28;20025;-75
2022/09/01 14:06:04;;;;;;;5.68;1.27;;;;;;;;;;5032384;28;20038;-73
2022/09/01 14:08:30;;;;;;;3.33;1.20;;;;;;;;;;5026822;28;20029;-75
2022/09/01 14:10:55;;;;;;;2.28;0.93;;;;;;;;;;5020573;28;20029;-75
2022/09/01 14:13:21;;;;;;;1.70;1.57;;;;;;;;;;5023470;28;20139;-75
2022/09/01 14:15:48;;;;;;;1.70;1.08;;;;;;;;;;5024558;28;20274;-75
2022/09/01 14:18:14;;;;;;;5.15;1.02;;;;;;;;;;5027755;28;20021;-72
2022/09/01 14:20:41;;;;;;;2.30;1.08;;;;;;;;;;5021858;28;20028;-75
2022/09/01 14:23:09;;;;;;;3.50;1.08;;;;;;;;;;5031811;28;20044;-74
2022/09/01 14:25:34;;;;;;;2.75;1.15;;;;;;;;;;5030687;28;20025;-72
2022/09/01 14:28:00;;;;;;;3.85;1.10;;;;;;;;;;5017402;28;20064;-75
2022/09/01 14:30:27;;;;;;;4.07;1.20;;;;;;;;;;5009295;28;20061;-72
2022/09/01 14:32:53;;;;;;;1.63;1.00;;;;;;;;;;5010700;28;20025;-77
2022/09/01 14:35:19;;;;;;;0.70;0.60;;;;;;;;;;5017579;28;20037;-74
2022/09/01 14:37:46;;;;;;;1.27;0.93;;;;;;;;;;5015352;28;20055;-74
2022/09/01 14:40:13;;;;;;;1.65;0.80;;;;;;;;;;5019886;28;20042;-72
2022/09/01 14:42:40;;;;;;;1.58;0.93;;;;;;;;;;5015324;28;20025;-74
2022/09/01 14:45:05;;;;;;;1.15;0.88;;;;;;;;;;5016506;28;20049;-74
2022/09/01 14:47:30;;;;;;;2.65;0.88;;;;;;;;;;5013796;28;20025;-74
2022/09/01 14:49:56;;;;;;;1.67;1.00;;;;;;;;;;5009677;28;20021;-75